sensor_id;sensor_type;location;lat;lon;timestamp;pressure;altitude;pressure_sealevel;temperature;humidity
62124;BME280;48110;47.532;19.078;2023-04-29T00:02:23;100306.44;;;10.65;100.00
62124;BME280;48110;47.532;19.078;2023-04-29T00:05:26;100310.09;;;10.64;100.00
62124;BME280;48110;47.532;19.078;2023-04-29T00:08:29;100303.44;;;10.68;100.00
62124;BME280;48110;47.532;19.078;2023-04-29T00:11:32;100300.78;;;10.68;100.00
62124;BME280;48110;47.532;19.078;2023-04-29T00:14:35;100308.75;;;10.68;100.00
62124;BME280;48110;47.532;19.078;2023-04-29T00:17:38;100305.13;;;10.53;100.00
62124;BME280;48110;47.532;19.078;2023-04-29T00:20:41;100293.06;;;10.50;100.00
62124;BME280;48110;47.532;19.078;2023-04-29T00:23:45;100282.94;;;10.54;100.00
62124;BME280;48110;47.532;19.078;2023-04-29T00:26:47;100291.41;;;10.49;100.00
62124;BME280;48110;47.532;19.078;2023-04-29T00:29:50;100284.28;;;10.50;100.00
62124;BME280;48110;47.532;19.078;2023-04-29T00:32:53;100281.44;;;10.51;100.00
62124;BME280;48110;47.532;19.078;2023-04-29T00:35:56;100285.91;;;10.51;100.00
62124;BME280;48110;47.532;19.078;2023-04-29T00:38:59;100284.41;;;10.56;100.00
62124;BME280;48110;47.532;19.078;2023-04-29T00:42:02;100286.22;;;10.64;100.00
62124;BME280;48110;47.532;19.078;2023-04-29T00:45:05;100286.84;;;10.66;100.00
62124;BME280;48110;47.532;19.078;2023-04-29T00:48:09;100293.81;;;10.67;100.00
62124;BME280;48110;47.532;19.078;2023-04-29T00:51:12;100295.50;;;10.68;100.00
62124;BME280;48110;47.532;19.078;2023-04-29T00:54:15;100295.66;;;10.66;100.00
62124;BME280;48110;47.532;19.078;2023-04-29T00:57:18;100295.50;;;10.68;100.00
62124;BME280;48110;47.532;19.078;2023-04-29T01:00:25;100299.59;;;10.70;100.00
62124;BME280;48110;47.532;19.078;2023-04-29T01:03:28;100306.22;;;10.82;100.00
62124;BME280;48110;47.532;19.078;2023-04-29T01:16:10;100289.47;;;10.82;100.00
62124;BME280;48110;47.532;19.078;2023-04-29T01:22:22;100300.12;;;10.74;100.00
62124;BME280;48110;47.532;19.078;2023-04-29T01:25:25;100293.97;;;10.73;100.00
62124;BME280;48110;47.532;19.078;2023-04-29T01:31:45;100293.66;;;10.68;100.00
62124;BME280;48110;47.532;19.078;2023-04-29T01:37:56;100293.50;;;10.62;100.00
62124;BME280;48110;47.532;19.078;2023-04-29T01:44:34;100284.91;;;10.52;100.00
62124;BME280;48110;47.532;19.078;2023-04-29T01:47:37;100289.56;;;10.50;100.00
62124;BME280;48110;47.532;19.078;2023-04-29T01:50:40;100286.59;;;10.44;100.00
62124;BME280;48110;47.532;19.078;2023-04-29T01:53:43;100286.22;;;10.56;100.00
62124;BME280;48110;47.532;19.078;2023-04-29T01:56:48;100280.28;;;10.54;100.00
62124;BME280;48110;47.532;19.078;2023-04-29T01:59:54;100275.44;;;10.57;100.00
62124;BME280;48110;47.532;19.078;2023-04-29T02:02:58;100273.78;;;10.64;100.00
62124;BME280;48110;47.532;19.078;2023-04-29T02:06:01;100283.56;;;10.64;100.00
62124;BME280;48110;47.532;19.078;2023-04-29T02:09:04;100291.37;;;10.57;100.00
62124;BME280;48110;47.532;19.078;2023-04-29T02:12:07;100282.94;;;10.54;100.00
62124;BME280;48110;47.532;19.078;2023-04-29T02:15:10;100282.09;;;10.53;100.00
62124;BME280;48110;47.532;19.078;2023-04-29T02:18:12;100274.28;;;10.52;100.00
62124;BME280;48110;47.532;19.078;2023-04-29T02:21:15;100281.94;;;10.55;100.00
62124;BME280;48110;47.532;19.078;2023-04-29T02:24:18;100277.06;;;10.66;100.00
62124;BME280;48110;47.532;19.078;2023-04-29T02:27:22;100280.72;;;10.73;100.00
62124;BME280;48110;47.532;19.078;2023-04-29T02:30:25;100276.03;;;10.75;100.00
62124;BME280;48110;47.532;19.078;2023-04-29T02:33:29;100287.00;;;10.72;100.00
62124;BME280;48110;47.532;19.078;2023-04-29T02:36:32;100280.84;;;10.80;100.00
62124;BME280;48110;47.532;19.078;2023-04-29T02:39:34;100274.09;;;10.69;100.00
62124;BME280;48110;47.532;19.078;2023-04-29T02:42:37;100278.06;;;10.73;100.00
62124;BME280;48110;47.532;19.078;2023-04-29T02:45:39;100276.38;;;10.80;100.00
62124;BME280;48110;47.532;19.078;2023-04-29T02:48:43;100276.50;;;10.87;100.00
62124;BME280;48110;47.532;19.078;2023-04-29T02:51:46;100270.69;;;10.92;100.00
62124;BME280;48110;47.532;19.078;2023-04-29T02:54:51;100268.41;;;10.80;100.00
62124;BME280;48110;47.532;19.078;2023-04-29T02:57:53;100262.38;;;10.95;100.00
62124;BME280;48110;47.532;19.078;2023-04-29T03:00:56;100261.06;;;10.90;100.00
62124;BME280;48110;47.532;19.078;2023-04-29T03:03:58;100260.91;;;10.92;100.00
62124;BME280;48110;47.532;19.078;2023-04-29T03:07:02;100269.50;;;10.94;100.00
62124;BME280;48110;47.532;19.078;2023-04-29T03:10:06;100270.16;;;10.96;100.00
62124;BME280;48110;47.532;19.078;2023-04-29T03:13:09;100268.03;;;10.92;100.00
62124;BME280;48110;47.532;19.078;2023-04-29T03:16:12;100272.19;;;10.86;100.00
62124;BME280;48110;47.532;19.078;2023-04-29T03:19:18;100256.91;;;10.96;100.00
62124;BME280;48110;47.532;19.078;2023-04-29T03:22:23;100273.50;;;10.90;100.00
62124;BME280;48110;47.532;19.078;2023-04-29T03:25:26;100262.47;;;10.78;100.00
62124;BME280;48110;47.532;19.078;2023-04-29T03:28:30;100265.62;;;10.74;100.00
62124;BME280;48110;47.532;19.078;2023-04-29T03:31:32;100275.06;;;10.76;100.00
62124;BME280;48110;47.532;19.078;2023-04-29T03:34:35;100274.41;;;10.74;100.00
62124;BME280;48110;47.532;19.078;2023-04-29T03:37:39;100283.38;;;10.73;100.00
62124;BME280;48110;47.532;19.078;2023-04-29T03:40:43;100276.56;;;10.71;100.00
62124;BME280;48110;47.532;19.078;2023-04-29T03:43:46;100275.41;;;10.73;100.00
62124;BME280;48110;47.532;19.078;2023-04-29T03:46:49;100275.72;;;10.78;100.00
62124;BME280;48110;47.532;19.078;2023-04-29T03:49:52;100274.41;;;10.74;100.00
62124;BME280;48110;47.532;19.078;2023-04-29T03:52:55;100288.16;;;10.78;100.00
62124;BME280;48110;47.532;19.078;2023-04-29T03:55:59;100292.13;;;10.82;100.00
62124;BME280;48110;47.532;19.078;2023-04-29T03:59:01;100286.97;;;10.80;100.00
62124;BME280;48110;47.532;19.078;2023-04-29T04:02:04;100291.97;;;10.75;100.00
62124;BME280;48110;47.532;19.078;2023-04-29T04:05:08;100291.66;;;10.78;100.00
62124;BME280;48110;47.532;19.078;2023-04-29T04:08:12;100292.78;;;10.76;100.00
62124;BME280;48110;47.532;19.078;2023-04-29T04:11:16;100299.59;;;10.70;100.00
62124;BME280;48110;47.532;19.078;2023-04-29T04:14:19;100308.72;;;10.76;99.20
62124;BME280;48110;47.532;19.078;2023-04-29T04:17:22;100302.06;;;10.80;100.00
62124;BME280;48110;47.532;19.078;2023-04-29T04:20:25;100307.25;;;10.73;100.00
62124;BME280;48110;47.532;19.078;2023-04-29T04:23:28;100308.59;;;10.69;100.00
62124;BME280;48110;47.532;19.078;2023-04-29T04:26:30;100311.09;;;10.63;100.00
62124;BME280;48110;47.532;19.078;2023-04-29T04:29:34;100310.63;;;10.43;100.00
62124;BME280;48110;47.532;19.078;2023-04-29T04:32:37;100315.44;;;10.15;100.00
62124;BME280;48110;47.532;19.078;2023-04-29T04:35:41;100310.94;;;9.83;100.00
62124;BME280;48110;47.532;19.078;2023-04-29T04:38:44;100301.00;;;9.61;100.00
62124;BME280;48110;47.532;19.078;2023-04-29T04:41:47;100296.34;;;9.47;100.00
62124;BME280;48110;47.532;19.078;2023-04-29T04:44:51;100299.97;;;9.38;100.00
62124;BME280;48110;47.532;19.078;2023-04-29T04:47:57;100303.25;;;9.40;100.00
62124;BME280;48110;47.532;19.078;2023-04-29T04:51:06;100292.81;;;9.30;100.00
62124;BME280;48110;47.532;19.078;2023-04-29T04:54:09;100300.44;;;9.33;100.00
62124;BME280;48110;47.532;19.078;2023-04-29T04:57:12;100299.62;;;9.33;100.00
62124;BME280;48110;47.532;19.078;2023-04-29T05:00:16;100296.00;;;9.34;100.00
62124;BME280;48110;47.532;19.078;2023-04-29T05:03:18;100295.47;;;9.30;100.00
62124;BME280;48110;47.532;19.078;2023-04-29T05:06:22;100285.88;;;9.29;100.00
62124;BME280;48110;47.532;19.078;2023-04-29T05:09:24;100296.00;;;9.34;100.00
62124;BME280;48110;47.532;19.078;2023-04-29T05:12:29;100282.59;;;9.43;100.00
62124;BME280;48110;47.532;19.078;2023-04-29T05:15:32;100289.72;;;9.51;100.00
62124;BME280;48110;47.532;19.078;2023-04-29T05:18:34;100291.41;;;9.68;100.00
62124;BME280;48110;47.532;19.078;2023-04-29T05:21:37;100293.56;;;9.89;100.00
62124;BME280;48110;47.532;19.078;2023-04-29T05:24:42;100292.06;;;9.70;100.00
62124;BME280;48110;47.532;19.078;2023-04-29T05:27:45;100294.41;;;9.81;100.00
62124;BME280;48110;47.532;19.078;2023-04-29T05:30:52;100294.91;;;9.85;100.00
62124;BME280;48110;47.532;19.078;2023-04-29T05:33:54;100295.53;;;9.79;100.00
62124;BME280;48110;47.532;19.078;2023-04-29T05:36:59;100298.88;;;9.89;100.00
62124;BME280;48110;47.532;19.078;2023-04-29T05:40:01;100298.88;;;9.97;100.00
62124;BME280;48110;47.532;19.078;2023-04-29T05:43:05;100299.88;;;9.96;100.00
62124;BME280;48110;47.532;19.078;2023-04-29T05:46:07;100304.84;;;10.15;100.00
62124;BME280;48110;47.532;19.078;2023-04-29T05:49:10;100306.66;;;10.23;100.00
62124;BME280;48110;47.532;19.078;2023-04-29T05:52:12;100304.69;;;10.33;100.00
62124;BME280;48110;47.532;19.078;2023-04-29T05:55:16;100309.81;;;10.34;100.00
62124;BME280;48110;47.532;19.078;2023-04-29T05:58:19;100307.50;;;10.39;100.00
62124;BME280;48110;47.532;19.078;2023-04-29T06:01:21;100305.47;;;10.41;100.00
62124;BME280;48110;47.532;19.078;2023-04-29T06:04:25;100305.66;;;10.40;100.00
62124;BME280;48110;47.532;19.078;2023-04-29T06:07:29;100303.62;;;10.58;100.00
62124;BME280;48110;47.532;19.078;2023-04-29T06:10:32;100309.28;;;10.55;100.00
62124;BME280;48110;47.532;19.078;2023-04-29T06:13:35;100305.94;;;10.69;100.00
62124;BME280;48110;47.532;19.078;2023-04-29T06:16:38;100317.31;;;10.86;100.00
62124;BME280;48110;47.532;19.078;2023-04-29T06:19:41;100328.56;;;10.96;100.00
62124;BME280;48110;47.532;19.078;2023-04-29T06:22:43;100337.50;;;11.03;100.00
62124;BME280;48110;47.532;19.078;2023-04-29T06:25:46;100337.50;;;11.03;100.00
62124;BME280;48110;47.532;19.078;2023-04-29T06:28:49;100327.69;;;11.04;100.00
62124;BME280;48110;47.532;19.078;2023-04-29T06:31:52;100325.03;;;11.04;100.00
62124;BME280;48110;47.532;19.078;2023-04-29T06:34:55;100328.84;;;11.09;100.00
62124;BME280;48110;47.532;19.078;2023-04-29T06:37:59;100322.78;;;11.23;100.00
62124;BME280;48110;47.532;19.078;2023-04-29T06:41:02;100319.38;;;11.46;100.00
62124;BME280;48110;47.532;19.078;2023-04-29T06:44:06;100326.75;;;11.58;100.00
62124;BME280;48110;47.532;19.078;2023-04-29T06:47:08;100321.59;;;11.65;100.00
62124;BME280;48110;47.532;19.078;2023-04-29T06:50:12;100329.56;;;11.65;100.00
62124;BME280;48110;47.532;19.078;2023-04-29T06:53:15;100331.19;;;11.74;100.00
62124;BME280;48110;47.532;19.078;2023-04-29T06:56:17;100330.59;;;11.87;100.00
62124;BME280;48110;47.532;19.078;2023-04-29T06:59:21;100338.84;;;11.92;100.00
62124;BME280;48110;47.532;19.078;2023-04-29T07:02:24;100335.03;;;11.94;100.00
62124;BME280;48110;47.532;19.078;2023-04-29T07:05:27;100329.28;;;12.05;100.00
62124;BME280;48110;47.532;19.078;2023-04-29T07:08:30;100336.56;;;11.89;97.81
62124;BME280;48110;47.532;19.078;2023-04-29T07:11:33;100336.09;;;11.85;98.32
62124;BME280;48110;47.532;19.078;2023-04-29T07:14:36;100330.47;;;12.03;100.00
62124;BME280;48110;47.532;19.078;2023-04-29T07:17:38;100329.41;;;12.12;100.00
62124;BME280;48110;47.532;19.078;2023-04-29T07:20:41;100328.59;;;12.26;100.00
62124;BME280;48110;47.532;19.078;2023-04-29T07:23:46;100337.72;;;12.32;100.00
62124;BME280;48110;47.532;19.078;2023-04-29T07:26:49;100333.88;;;12.34;100.00
62124;BME280;48110;47.532;19.078;2023-04-29T07:29:52;100339.19;;;12.34;100.00
62124;BME280;48110;47.532;19.078;2023-04-29T07:32:54;100345.53;;;12.33;98.99
62124;BME280;48110;47.532;19.078;2023-04-29T07:35:58;100339.56;;;12.46;98.66
62124;BME280;48110;47.532;19.078;2023-04-29T07:39:00;100339.41;;;12.47;95.22
62124;BME280;48110;47.532;19.078;2023-04-29T07:42:03;100332.72;;;12.66;95.22
62124;BME280;48110;47.532;19.078;2023-04-29T07:45:05;100338.06;;;12.81;90.38
62124;BME280;48110;47.532;19.078;2023-04-29T07:48:08;100330.97;;;12.88;90.20
62124;BME280;48110;47.532;19.078;2023-04-29T07:51:11;100343.09;;;13.05;81.67
62124;BME280;48110;47.532;19.078;2023-04-29T07:54:16;100347.50;;;13.27;84.11
62124;BME280;48110;47.532;19.078;2023-04-29T07:57:20;100341.63;;;13.32;81.23
62124;BME280;48110;47.532;19.078;2023-04-29T08:00:23;100351.72;;;13.36;77.72
62124;BME280;48110;47.532;19.078;2023-04-29T08:03:26;100349.28;;;13.35;77.46
62124;BME280;48110;47.532;19.078;2023-04-29T08:06:28;100348.75;;;13.46;80.16
62124;BME280;48110;47.532;19.078;2023-04-29T08:09:32;100351.53;;;13.53;72.52
62124;BME280;48110;47.532;19.078;2023-04-29T08:12:34;100353.72;;;13.85;73.59
62124;BME280;48110;47.532;19.078;2023-04-29T08:15:37;100352.44;;;14.23;68.99
62124;BME280;48110;47.532;19.078;2023-04-29T08:18:39;100356.97;;;14.72;69.07
62124;BME280;48110;47.532;19.078;2023-04-29T08:21:42;100361.06;;;15.02;61.63
62124;BME280;48110;47.532;19.078;2023-04-29T08:24:45;100363.00;;;15.15;64.10
62124;BME280;48110;47.532;19.078;2023-04-29T08:27:47;100363.00;;;15.15;61.16
62124;BME280;48110;47.532;19.078;2023-04-29T08:30:51;100369.69;;;14.42;60.96
62124;BME280;48110;47.532;19.078;2023-04-29T08:33:54;100362.22;;;14.59;66.55
62124;BME280;48110;47.532;19.078;2023-04-29T08:36:57;100361.84;;;14.96;69.33
62124;BME280;48110;47.532;19.078;2023-04-29T08:39:59;100366.09;;;15.25;60.37
62124;BME280;48110;47.532;19.078;2023-04-29T08:43:02;100369.25;;;15.35;60.59
62124;BME280;48110;47.532;19.078;2023-04-29T08:46:06;100354.56;;;15.52;60.57
62124;BME280;48110;47.532;19.078;2023-04-29T08:49:08;100363.91;;;15.83;57.68
62124;BME280;48110;47.532;19.078;2023-04-29T08:52:11;100351.59;;;16.01;61.70
62124;BME280;48110;47.532;19.078;2023-04-29T08:55:14;100359.97;;;15.79;59.47
62124;BME280;48110;47.532;19.078;2023-04-29T08:58:16;100376.37;;;14.59;56.71
62124;BME280;48110;47.532;19.078;2023-04-29T09:01:20;100365.66;;;15.15;57.95
62124;BME280;48110;47.532;19.078;2023-04-29T09:07:32;100368.34;;;15.21;56.41
62124;BME280;48110;47.532;19.078;2023-04-29T09:10:35;100367.44;;;15.42;57.40
62124;BME280;48110;47.532;19.078;2023-04-29T09:13:38;100375.28;;;15.50;56.63
62124;BME280;48110;47.532;19.078;2023-04-29T09:16:41;100375.16;;;15.58;57.09
62124;BME280;48110;47.532;19.078;2023-04-29T09:19:43;100382.72;;;15.55;57.87
62124;BME280;48110;47.532;19.078;2023-04-29T09:22:46;100382.81;;;15.34;52.67
62124;BME280;48110;47.532;19.078;2023-04-29T09:25:55;100381.34;;;15.31;54.14
62124;BME280;48110;47.532;19.078;2023-04-29T09:29:08;100379.50;;;15.32;54.42
62124;BME280;48110;47.532;19.078;2023-04-29T09:32:20;100373.81;;;15.07;55.88
62124;BME280;48110;47.532;19.078;2023-04-29T09:35:24;100377.97;;;15.16;56.19
62124;BME280;48110;47.532;19.078;2023-04-29T09:38:27;100379.50;;;15.73;53.96
62124;BME280;48110;47.532;19.078;2023-04-29T09:41:30;100370.78;;;15.51;53.62
62124;BME280;48110;47.532;19.078;2023-04-29T09:44:33;100378.31;;;15.34;50.10
62124;BME280;48110;47.532;19.078;2023-04-29T09:47:39;100372.91;;;15.69;52.61
62124;BME280;48110;47.532;19.078;2023-04-29T09:50:42;100364.09;;;15.88;49.98
62124;BME280;48110;47.532;19.078;2023-04-29T09:53:45;100365.63;;;16.17;47.67
62124;BME280;48110;47.532;19.078;2023-04-29T09:56:48;100362.50;;;16.00;49.77
62124;BME280;48110;47.532;19.078;2023-04-29T09:59:51;100366.44;;;16.37;48.97
62124;BME280;48110;47.532;19.078;2023-04-29T10:02:54;100357.59;;;16.30;48.94
62124;BME280;48110;47.532;19.078;2023-04-29T10:06:06;100358.63;;;16.35;48.38
62124;BME280;48110;47.532;19.078;2023-04-29T10:09:09;100355.94;;;16.48;49.33
62124;BME280;48110;47.532;19.078;2023-04-29T10:12:15;100359.44;;;16.75;46.97
62124;BME280;48110;47.532;19.078;2023-04-29T10:15:25;100352.00;;;16.58;47.26
62124;BME280;48110;47.532;19.078;2023-04-29T10:18:33;100355.69;;;16.96;45.10
62124;BME280;48110;47.532;19.078;2023-04-29T10:21:37;100344.41;;;17.45;43.10
62124;BME280;48110;47.532;19.078;2023-04-29T10:24:40;100350.84;;;17.31;45.87
62124;BME280;48110;47.532;19.078;2023-04-29T10:27:44;100349.94;;;17.57;42.40
62124;BME280;48110;47.532;19.078;2023-04-29T10:30:50;100354.91;;;17.91;41.05
62124;BME280;48110;47.532;19.078;2023-04-29T10:33:56;100348.84;;;18.34;42.57
62124;BME280;48110;47.532;19.078;2023-04-29T10:36:59;100344.53;;;18.51;41.74
62124;BME280;48110;47.532;19.078;2023-04-29T10:43:08;100333.62;;;18.21;41.73
62124;BME280;48110;47.532;19.078;2023-04-29T10:49:22;100318.91;;;19.94;38.45
62124;BME280;48110;47.532;19.078;2023-04-29T10:52:26;100312.91;;;19.14;38.93
62124;BME280;48110;47.532;19.078;2023-04-29T10:55:29;100307.50;;;20.68;37.80
62124;BME280;48110;47.532;19.078;2023-04-29T10:58:41;100302.91;;;20.22;38.77
62124;BME280;48110;47.532;19.078;2023-04-29T11:01:51;100307.12;;;19.29;38.51
62124;BME280;48110;47.532;19.078;2023-04-29T11:05:07;100293.69;;;20.76;36.89
62124;BME280;48110;47.532;19.078;2023-04-29T11:08:14;100280.87;;;21.35;37.79
62124;BME280;48110;47.532;19.078;2023-04-29T11:11:24;100284.81;;;20.41;38.17
62124;BME280;48110;47.532;19.078;2023-04-29T11:14:30;100278.28;;;20.19;38.50
62124;BME280;48110;47.532;19.078;2023-04-29T11:17:34;100277.00;;;19.57;39.00
62124;BME280;48110;47.532;19.078;2023-04-29T11:21:21;100272.09;;;20.30;37.25
62124;BME280;48110;47.532;19.078;2023-04-29T11:24:04;100269.06;;;20.85;37.01
62124;BME280;48110;47.532;19.078;2023-04-29T11:27:08;100266.09;;;23.53;33.73
62124;BME280;48110;47.532;19.078;2023-04-29T11:30:10;100266.06;;;21.94;33.87
62124;BME280;48110;47.532;19.078;2023-04-29T11:33:14;100266.94;;;22.50;36.42
62124;BME280;48110;47.532;19.078;2023-04-29T11:36:17;100262.22;;;24.03;33.06
62124;BME280;48110;47.532;19.078;2023-04-29T11:39:20;100254.72;;;23.29;32.83
62124;BME280;48110;47.532;19.078;2023-04-29T11:42:22;100270.28;;;24.66;32.30
62124;BME280;48110;47.532;19.078;2023-04-29T11:45:25;100262.69;;;26.98;27.61
62124;BME280;48110;47.532;19.078;2023-04-29T11:48:27;100260.81;;;27.91;27.05
62124;BME280;48110;47.532;19.078;2023-04-29T11:51:32;100258.94;;;25.42;29.64
62124;BME280;48110;47.532;19.078;2023-04-29T11:54:35;100258.69;;;25.53;29.29
62124;BME280;48110;47.532;19.078;2023-04-29T11:57:37;100256.28;;;28.10;28.40
62124;BME280;48110;47.532;19.078;2023-04-29T12:00:41;100259.75;;;30.29;25.12
62124;BME280;48110;47.532;19.078;2023-04-29T12:03:44;100255.94;;;32.19;21.22
62124;BME280;48110;47.532;19.078;2023-04-29T12:06:50;100251.25;;;29.98;23.82
62124;BME280;48110;47.532;19.078;2023-04-29T12:09:53;100247.00;;;33.32;21.00
62124;BME280;48110;47.532;19.078;2023-04-29T12:12:56;100247.34;;;33.91;20.84
62124;BME280;48110;47.532;19.078;2023-04-29T12:16:00;100248.31;;;32.16;22.05
62124;BME280;48110;47.532;19.078;2023-04-29T12:19:04;100248.47;;;29.28;23.69
62124;BME280;48110;47.532;19.078;2023-04-29T12:22:07;100240.50;;;28.65;25.12
62124;BME280;48110;47.532;19.078;2023-04-29T12:25:10;100235.25;;;26.79;28.50
62124;BME280;48110;47.532;19.078;2023-04-29T12:28:13;100228.47;;;25.20;29.79
62124;BME280;48110;47.532;19.078;2023-04-29T12:31:16;100223.72;;;25.98;30.00
62124;BME280;48110;47.532;19.078;2023-04-29T12:34:27;100222.81;;;24.64;32.08
62124;BME280;48110;47.532;19.078;2023-04-29T12:37:29;100230.56;;;27.05;28.37
62124;BME280;48110;47.532;19.078;2023-04-29T12:40:32;100229.12;;;29.62;25.28
62124;BME280;48110;47.532;19.078;2023-04-29T12:43:35;100217.63;;;31.92;22.30
62124;BME280;48110;47.532;19.078;2023-04-29T12:46:39;100229.53;;;32.10;22.30
62124;BME280;48110;47.532;19.078;2023-04-29T12:49:42;100210.75;;;30.73;22.85
62124;BME280;48110;47.532;19.078;2023-04-29T12:52:45;100221.56;;;32.22;22.28
62124;BME280;48110;47.532;19.078;2023-04-29T12:55:48;100209.03;;;29.53;23.95
62124;BME280;48110;47.532;19.078;2023-04-29T12:58:50;100201.12;;;28.71;25.80
62124;BME280;48110;47.532;19.078;2023-04-29T13:01:54;100194.00;;;29.69;24.57
62124;BME280;48110;47.532;19.078;2023-04-29T13:04:57;100195.63;;;31.03;23.34
62124;BME280;48110;47.532;19.078;2023-04-29T13:08:00;100181.75;;;29.29;25.87
62124;BME280;48110;47.532;19.078;2023-04-29T13:11:03;100185.78;;;32.92;21.32
62124;BME280;48110;47.532;19.078;2023-04-29T13:14:06;100181.47;;;33.51;20.92
62124;BME280;48110;47.532;19.078;2023-04-29T13:17:08;100172.87;;;28.81;25.55
62124;BME280;48110;47.532;19.078;2023-04-29T13:20:12;100165.16;;;28.17;25.65
62124;BME280;48110;47.532;19.078;2023-04-29T13:23:16;100170.34;;;26.47;28.53
62124;BME280;48110;47.532;19.078;2023-04-29T13:26:19;100164.62;;;23.98;32.39
62124;BME280;48110;47.532;19.078;2023-04-29T13:29:22;100158.28;;;23.45;33.26
62124;BME280;48110;47.532;19.078;2023-04-29T13:32:25;100158.28;;;23.82;32.99
62124;BME280;48110;47.532;19.078;2023-04-29T13:35:43;100161.88;;;23.56;33.59
62124;BME280;48110;47.532;19.078;2023-04-29T13:38:46;100154.41;;;23.41;33.69
62124;BME280;48110;47.532;19.078;2023-04-29T13:41:56;100143.81;;;22.42;33.79
62124;BME280;48110;47.532;19.078;2023-04-29T13:45:01;100144.03;;;22.58;35.27
62124;BME280;48110;47.532;19.078;2023-04-29T13:48:05;100140.06;;;22.43;36.15
62124;BME280;48110;47.532;19.078;2023-04-29T13:51:27;100131.25;;;23.23;34.16
62124;BME280;48110;47.532;19.078;2023-04-29T13:54:33;100122.94;;;29.83;25.74
62124;BME280;48110;47.532;19.078;2023-04-29T13:57:48;100133.38;;;28.73;26.76
62124;BME280;48110;47.532;19.078;2023-04-29T14:01:11;100134.81;;;25.37;29.83
62124;BME280;48110;47.532;19.078;2023-04-29T14:04:34;100139.19;;;25.89;29.54
62124;BME280;48110;47.532;19.078;2023-04-29T14:07:37;100142.44;;;24.48;30.96
62124;BME280;48110;47.532;19.078;2023-04-29T14:10:40;100136.72;;;22.15;35.60
62124;BME280;48110;47.532;19.078;2023-04-29T14:13:43;100137.22;;;21.00;37.44
62124;BME280;48110;47.532;19.078;2023-04-29T14:16:46;100136.63;;;20.98;38.14
62124;BME280;48110;47.532;19.078;2023-04-29T14:19:49;100126.97;;;21.30;38.46
62124;BME280;48110;47.532;19.078;2023-04-29T14:22:51;100128.00;;;22.51;35.34
62124;BME280;48110;47.532;19.078;2023-04-29T14:25:54;100126.81;;;23.12;35.63
62124;BME280;48110;47.532;19.078;2023-04-29T14:29:17;100119.56;;;21.71;37.78
62124;BME280;48110;47.532;19.078;2023-04-29T14:32:20;100122.97;;;21.99;37.13
62124;BME280;48110;47.532;19.078;2023-04-29T14:35:23;100124.56;;;21.29;38.58
62124;BME280;48110;47.532;19.078;2023-04-29T14:38:25;100110.44;;;21.10;38.64
62124;BME280;48110;47.532;19.078;2023-04-29T14:41:28;100101.44;;;20.24;40.50
62124;BME280;48110;47.532;19.078;2023-04-29T14:44:30;100106.69;;;20.54;40.43
62124;BME280;48110;47.532;19.078;2023-04-29T14:47:33;100101.37;;;20.59;40.06
62124;BME280;48110;47.532;19.078;2023-04-29T14:50:35;100098.66;;;20.71;39.57
62124;BME280;48110;47.532;19.078;2023-04-29T14:53:38;100105.09;;;20.70;40.30
62124;BME280;48110;47.532;19.078;2023-04-29T14:56:41;100110.19;;;20.55;40.75
62124;BME280;48110;47.532;19.078;2023-04-29T14:59:43;100117.41;;;20.03;42.56
62124;BME280;48110;47.532;19.078;2023-04-29T15:02:45;100115.22;;;19.65;42.94
62124;BME280;48110;47.532;19.078;2023-04-29T15:05:49;100111.41;;;19.01;44.79
62124;BME280;48110;47.532;19.078;2023-04-29T15:08:53;100118.13;;;18.80;44.54
62124;BME280;48110;47.532;19.078;2023-04-29T15:11:55;100123.06;;;19.25;44.38
62124;BME280;48110;47.532;19.078;2023-04-29T15:14:58;100124.69;;;19.79;43.07
62124;BME280;48110;47.532;19.078;2023-04-29T15:18:00;100114.38;;;19.99;42.75
62124;BME280;48110;47.532;19.078;2023-04-29T15:21:03;100106.62;;;19.44;43.46
62124;BME280;48110;47.532;19.078;2023-04-29T15:24:06;100109.75;;;19.30;43.79
62124;BME280;48110;47.532;19.078;2023-04-29T15:27:09;100115.19;;;19.12;44.74
62124;BME280;48110;47.532;19.078;2023-04-29T15:30:12;100119.78;;;19.23;44.56
62124;BME280;48110;47.532;19.078;2023-04-29T15:33:15;100121.31;;;19.30;44.38
62124;BME280;48110;47.532;19.078;2023-04-29T15:36:17;100114.94;;;19.13;44.71
62124;BME280;48110;47.532;19.078;2023-04-29T15:39:20;100109.88;;;18.63;45.78
62124;BME280;48110;47.532;19.078;2023-04-29T15:42:23;100100.69;;;18.71;45.85
62124;BME280;48110;47.532;19.078;2023-04-29T15:45:25;100100.53;;;18.48;45.85
62124;BME280;48110;47.532;19.078;2023-04-29T15:48:31;100097.38;;;18.69;46.21
62124;BME280;48110;47.532;19.078;2023-04-29T15:51:34;100094.94;;;18.97;45.87
62124;BME280;48110;47.532;19.078;2023-04-29T15:54:36;100088.13;;;19.36;45.80
62124;BME280;48110;47.532;19.078;2023-04-29T15:57:38;100088.28;;;19.53;45.10
62124;BME280;48110;47.532;19.078;2023-04-29T16:00:43;100093.91;;;19.10;44.68
62124;BME280;48110;47.532;19.078;2023-04-29T16:03:45;100097.94;;;19.31;44.66
62124;BME280;48110;47.532;19.078;2023-04-29T16:06:48;100094.56;;;19.35;44.59
62124;BME280;48110;47.532;19.078;2023-04-29T16:09:51;100095.44;;;19.06;45.88
62124;BME280;48110;47.532;19.078;2023-04-29T16:12:53;100090.41;;;19.09;46.05
62124;BME280;48110;47.532;19.078;2023-04-29T16:15:56;100098.03;;;18.83;46.54